Time;durP1;ratioP1;P1;durP2;ratioP2;P2;SDS_P1;SDS_P2;PMS_P1;PMS_P2;Temp;Humidity;BMP_temperature;BMP_pressure;BME280_temperature;BME280_humidity;BME280_pressure;Samples;Min_cycle;Max_cycle;Signal;HPM_P1;HPM_P2
2022/12/01 00:01:18;;;;;;;36.83;20.53;;;2.50;99.90;;;;;;6239842;23;20441;-74
2022/12/01 00:03:45;;;;;;;42.40;22.70;;;2.50;99.90;;;;;;6240148;23;20405;-73
2022/12/01 00:06:14;;;;;;;41.37;21.43;;;2.40;99.90;;;;;;6240520;23;20413;-74
2022/12/01 00:10:24;;;;;;;42.77;21.93;;;2.40;99.90;;;;;;6240304;23;20414;-73
2022/12/01 00:11:40;;;;;;;50.00;24.97;;;2.40;99.90;;;;;;6239714;23;20947;-74
2022/12/01 00:14:07;;;;;;;41.87;24.47;;;2.30;99.90;;;;;;6240323;23;20866;-73
2022/12/01 00:16:34;;;;;;;41.10;22.33;;;2.30;99.90;;;;;;6240433;23;20414;-74
2022/12/01 00:19:01;;;;;;;40.43;21.70;;;2.30;99.90;;;;;;6239263;23;20896;-73
2022/12/01 00:21:28;;;;;;;49.27;23.60;;;2.40;99.90;;;;;;6240388;23;20785;-73
2022/12/01 00:23:57;;;;;;;48.00;22.53;;;2.40;99.90;;;;;;6239323;23;20469;-73
2022/12/01 00:26:27;;;;;;;50.30;24.97;;;2.40;99.90;;;;;;6239960;23;20394;-73
2022/12/01 00:28:57;;;;;;;47.90;22.87;;;2.30;99.90;;;;;;6239685;23;20785;-73
2022/12/01 00:31:25;;;;;;;41.93;21.30;;;2.30;99.90;;;;;;6240058;23;20410;-74
2022/12/01 00:33:52;;;;;;;42.77;23.93;;;2.20;99.90;;;;;;6240868;23;20438;-74
2022/12/01 00:36:19;;;;;;;45.53;23.50;;;2.20;99.90;;;;;;6237203;23;20932;-74
2022/12/01 00:38:46;;;;;;;47.87;25.20;;;2.10;99.90;;;;;;6239739;23;20445;-74
2022/12/01 00:41:21;;;;;;;46.13;24.73;;;2.20;99.90;;;;;;6240158;23;20391;-74
2022/12/01 00:43:48;;;;;;;49.30;23.17;;;2.10;99.90;;;;;;6240121;23;20575;-74
2022/12/01 00:46:16;;;;;;;48.90;24.27;;;2.10;99.90;;;;;;6240064;23;20895;-74
2022/12/01 00:48:43;;;;;;;42.93;22.50;;;2.20;99.90;;;;;;6240282;23;20437;-74
2022/12/01 00:51:12;;;;;;;40.43;22.83;;;2.30;99.90;;;;;;6239606;23;20406;-74
2022/12/01 00:53:39;;;;;;;43.67;22.07;;;2.20;99.90;;;;;;6239716;23;20421;-74
2022/12/01 00:56:06;;;;;;;47.77;23.00;;;2.10;99.90;;;;;;6240839;23;20414;-75
2022/12/01 00:58:33;;;;;;;41.03;21.10;;;2.10;99.90;;;;;;6240896;23;20957;-74
2022/12/01 01:01:01;;;;;;;46.13;21.87;;;2.00;99.90;;;;;;6239912;23;20995;-74
2022/12/01 01:03:30;;;;;;;41.87;22.47;;;1.90;99.90;;;;;;6239436;23;20439;-74
2022/12/01 01:06:03;;;;;;;40.20;21.00;;;1.80;99.90;;;;;;6239705;23;20943;-74
2022/12/01 01:08:30;;;;;;;46.40;22.83;;;1.90;99.90;;;;;;6239348;23;20923;-74
2022/12/01 01:11:00;;;;;;;50.57;22.03;;;2.00;99.90;;;;;;6239691;22;20436;-74
2022/12/01 01:13:27;;;;;;;48.07;22.00;;;2.00;99.90;;;;;;6239158;23;20442;-74
2022/12/01 01:15:59;;;;;;;45.33;19.97;;;2.00;99.90;;;;;;6239615;23;20406;-74
2022/12/01 01:18:26;;;;;;;37.90;20.93;;;2.10;99.90;;;;;;6239386;23;20406;-74
2022/12/01 01:20:57;;;;;;;38.43;20.13;;;2.20;99.90;;;;;;6239653;23;20958;-74
2022/12/01 01:23:28;;;;;;;38.80;20.27;;;2.20;99.90;;;;;;6238733;23;20485;-74
2022/12/01 01:26:01;;;;;;;36.97;18.43;;;2.00;99.90;;;;;;6239229;23;20414;-74
2022/12/01 01:28:30;;;;;;;38.10;18.10;;;2.00;99.90;;;;;;6239661;23;20495;-74
2022/12/01 01:30:57;;;;;;;36.00;18.90;;;2.00;99.90;;;;;;6239146;23;20411;-74
2022/12/01 01:33:24;;;;;;;38.50;20.50;;;2.00;99.90;;;;;;6239234;23;20446;-74
2022/12/01 01:35:50;;;;;;;36.20;18.60;;;2.00;99.90;;;;;;6239629;23;20449;-73
2022/12/01 01:38:19;;;;;;;36.27;19.67;;;2.90;99.90;;;;;;6238699;23;20941;-74
2022/12/01 01:40:47;;;;;;;42.60;20.33;;;2.00;99.90;;;;;;6239380;23;20413;-74
2022/12/01 01:43:15;;;;;;;34.03;16.87;;;2.00;99.90;;;;;;6239739;23;20424;-73
2022/12/01 01:45:43;;;;;;;37.90;20.80;;;1.80;99.90;;;;;;6239429;23;20414;-74
2022/12/01 01:48:11;;;;;;;36.80;19.23;;;1.80;99.90;;;;;;6238840;23;20865;-73
2022/12/01 01:50:38;;;;;;;38.43;18.53;;;2.30;99.90;;;;;;6239460;23;20890;-74
2022/12/01 01:53:10;;;;;;;40.57;18.17;;;1.80;99.90;;;;;;6240025;23;20481;-74
2022/12/01 01:55:38;;;;;;;50.57;21.83;;;1.60;99.90;;;;;;6240447;23;20433;-74
2022/12/01 01:58:11;;;;;;;48.83;22.47;;;1.80;99.90;;;;;;6239077;23;20414;-74
2022/12/01 02:00:40;;;;;;;36.37;19.37;;;1.70;99.90;;;;;;6239702;23;20403;-74
2022/12/01 02:03:10;;;;;;;35.63;19.40;;;1.80;99.90;;;;;;6239940;23;20481;-74
2022/12/01 02:05:38;;;;;;;39.80;20.77;;;2.70;99.90;;;;;;6242376;23;20442;-74
2022/12/01 02:08:11;;;;;;;44.83;20.47;;;1.90;99.90;;;;;;6240713;23;20408;-74
2022/12/01 02:10:51;;;;;;;48.83;22.43;;;1.90;99.90;;;;;;6238996;22;20797;-74
2022/12/01 02:13:27;;;;;;;47.40;20.40;;;2.00;99.90;;;;;;6238739;23;20437;-74
2022/12/01 02:16:01;;;;;;;42.73;20.30;;;1.90;99.90;;;;;;6238877;23;20394;-74
2022/12/01 02:18:37;;;;;;;48.67;22.10;;;2.00;99.90;;;;;;6238773;23;20747;-74
2022/12/01 02:21:40;;;;;;;39.63;20.10;;;2.60;99.90;;;;;;6238832;23;20402;-74
2022/12/01 02:24:40;;;;;;;44.53;19.73;;;1.90;99.90;;;;;;6238375;23;20980;-73
2022/12/01 02:27:18;;;;;;;42.90;19.90;;;1.90;99.90;;;;;;6239193;23;20946;-74
2022/12/01 02:30:10;;;;;;;52.03;21.80;;;2.00;99.90;;;;;;6238448;23;20417;-74
2022/12/01 02:32:55;;;;;;;46.27;19.60;;;2.00;99.90;;;;;;6209625;23;20500;-74
2022/12/01 02:35:29;;;;;;;43.33;21.13;;;2.80;99.90;;;;;;6238804;23;20477;-74
2022/12/01 02:38:06;;;;;;;45.40;22.80;;;2.00;99.90;;;;;;6238573;23;20394;-74
2022/12/01 02:40:39;;;;;;;37.77;19.70;;;1.90;99.90;;;;;;6238319;23;20868;-74
2022/12/01 02:43:12;;;;;;;45.60;22.90;;;2.00;99.90;;;;;;6238319;23;20448;-74
2022/12/01 02:45:43;;;;;;;53.07;24.87;;;3.10;99.90;;;;;;6238246;23;20736;-74
2022/12/01 02:48:16;;;;;;;50.97;23.73;;;2.00;99.90;;;;;;6238478;23;20612;-74
2022/12/01 02:50:45;;;;;;;52.27;22.73;;;1.80;99.90;;;;;;6237439;23;20419;-75
2022/12/01 02:53:15;;;;;;;50.60;22.53;;;1.90;99.90;;;;;;6238319;23;20525;-74
2022/12/01 02:55:51;;;;;;;53.07;24.80;;;1.90;99.90;;;;;;6239025;23;20382;-72
2022/12/01 02:58:18;;;;;;;56.50;23.43;;;3.00;99.90;;;;;;6238624;23;20505;-72
2022/12/01 03:01:03;;;;;;;51.60;22.47;;;2.00;99.90;;;;;;6238352;23;20414;-74
2022/12/01 03:03:40;;;;;;;48.87;22.03;;;3.10;99.90;;;;;;6238426;23;20405;-72
2022/12/01 03:06:14;;;;;;;55.70;22.93;;;2.10;99.90;;;;;;6238743;23;20469;-73
2022/12/01 03:08:50;;;;;;;52.90;22.17;;;2.10;99.90;;;;;;6238839;23;20402;-75
2022/12/01 03:11:26;;;;;;;50.73;23.70;;;2.00;99.90;;;;;;6239205;22;20982;-73
2022/12/01 03:14:05;;;;;;;50.00;21.97;;;2.10;99.90;;;;;;6238458;23;20520;-73
2022/12/01 03:16:38;;;;;;;49.07;23.07;;;2.10;99.90;;;;;;6238006;23;20755;-73
2022/12/01 03:19:09;;;;;;;49.40;23.43;;;1.90;99.90;;;;;;6239277;23;20394;-73
2022/12/01 03:21:41;;;;;;;49.70;22.00;;;2.10;99.90;;;;;;6247028;23;20526;-75
2022/12/01 03:24:12;;;;;;;56.03;22.93;;;2.20;99.90;;;;;;6240704;23;20444;-73
2022/12/01 03:26:42;;;;;;;53.10;25.43;;;2.20;99.90;;;;;;6240960;23;20422;-73
2022/12/01 03:29:14;;;;;;;46.97;22.53;;;2.00;99.90;;;;;;6238674;23;20446;-73
2022/12/01 03:31:45;;;;;;;52.03;24.67;;;2.10;99.90;;;;;;6238020;23;20482;-73
2022/12/01 03:34:22;;;;;;;50.70;25.80;;;2.90;99.90;;;;;;6237776;23;20442;-74
2022/12/01 03:36:55;;;;;;;45.63;22.13;;;2.20;99.90;;;;;;6239417;23;20432;-72
2022/12/01 03:39:27;;;;;;;56.70;22.73;;;2.20;99.90;;;;;;6238117;23;20430;-73
2022/12/01 03:42:00;;;;;;;48.90;23.80;;;2.30;99.90;;;;;;6238686;23;20635;-74
2022/12/01 03:44:33;;;;;;;53.20;22.53;;;2.20;99.90;;;;;;6237981;23;20399;-74
2022/12/01 03:47:01;;;;;;;53.73;22.97;;;2.30;99.90;;;;;;6238149;23;20463;-74
2022/12/01 03:49:30;;;;;;;47.90;21.90;;;2.20;99.90;;;;;;6238344;23;20410;-74
2022/12/01 03:52:09;;;;;;;53.67;24.67;;;2.20;99.90;;;;;;6238127;23;20418;-74
2022/12/01 03:54:49;;;;;;;49.20;24.37;;;2.20;99.90;;;;;;6238129;23;20483;-74
2022/12/01 03:57:18;;;;;;;52.17;23.00;;;2.10;99.90;;;;;;6238826;23;20397;-74
2022/12/01 03:59:47;;;;;;;57.07;26.17;;;2.10;99.90;;;;;;6239297;23;20449;-74
2022/12/01 04:02:14;;;;;;;52.37;22.80;;;2.10;99.90;;;;;;6240496;23;20410;-74
2022/12/01 04:04:43;;;;;;;46.40;23.60;;;2.10;99.90;;;;;;6240577;23;20468;-74
2022/12/01 04:07:12;;;;;;;48.27;21.90;;;2.20;99.90;;;;;;6240343;23;20556;-74
2022/12/01 04:09:40;;;;;;;54.60;23.70;;;2.20;99.90;;;;;;6240075;22;20606;-74
2022/12/01 04:14:52;;;;;;;62.03;22.80;;;2.20;99.90;;;;;;6240788;23;20725;-74
2022/12/01 04:17:20;;;;;;;60.50;25.40;;;2.20;99.90;;;;;;6240084;23;20409;-74
2022/12/01 04:19:48;;;;;;;57.90;23.97;;;2.20;99.90;;;;;;6239958;23;20922;-74
2022/12/01 04:22:15;;;;;;;49.93;22.83;;;2.30;99.90;;;;;;6240262;23;20414;-74
2022/12/01 04:24:47;;;;;;;58.40;24.70;;;2.30;99.90;;;;;;6239569;23;20934;-74
2022/12/01 04:27:15;;;;;;;53.63;22.20;;;2.30;99.90;;;;;;6240036;23;20406;-74
2022/12/01 04:29:41;;;;;;;50.20;22.77;;;2.30;99.90;;;;;;6239871;23;20408;-74
2022/12/01 04:34:51;;;;;;;46.43;21.13;;;2.20;99.90;;;;;;6238026;23;20872;-74
2022/12/01 04:37:18;;;;;;;45.60;21.83;;;2.20;99.90;;;;;;6240084;23;20776;-74
2022/12/01 04:39:45;;;;;;;46.67;23.40;;;2.30;99.90;;;;;;6239003;23;20433;-74
2022/12/01 04:42:15;;;;;;;42.97;21.70;;;2.30;99.90;;;;;;6239819;23;20402;-74
2022/12/01 04:44:42;;;;;;;48.60;21.40;;;2.30;99.90;;;;;;6240086;23;20395;-74
2022/12/01 04:47:09;;;;;;;40.53;21.63;;;2.30;99.90;;;;;;6239686;23;20852;-74
2022/12/01 04:49:36;;;;;;;37.00;19.87;;;2.10;99.90;;;;;;6239956;23;20787;-74
2022/12/01 04:52:05;;;;;;;43.23;21.13;;;2.30;99.90;;;;;;6239264;23;20418;-74
2022/12/01 04:54:32;;;;;;;38.97;19.57;;;2.30;99.90;;;;;;6240080;23;20441;-74
2022/12/01 04:57:04;;;;;;;55.67;23.63;;;2.20;99.90;;;;;;6239312;23;20445;-73
2022/12/01 04:59:31;;;;;;;48.13;21.47;;;2.40;99.90;;;;;;6239595;23;20460;-74
2022/12/01 05:01:58;;;;;;;42.33;20.10;;;2.40;99.90;;;;;;6239331;23;20629;-74
2022/12/01 05:04:25;;;;;;;42.53;21.57;;;2.30;99.90;;;;;;6239917;23;20460;-74
2022/12/01 05:06:55;;;;;;;40.97;19.77;;;2.30;99.90;;;;;;6239901;23;20777;-73
2022/12/01 05:09:23;;;;;;;47.47;22.47;;;2.30;99.90;;;;;;6239270;22;20846;-74
2022/12/01 05:11:50;;;;;;;41.80;20.40;;;2.30;99.90;;;;;;6239039;23;20460;-74
2022/12/01 05:14:17;;;;;;;51.50;23.07;;;2.50;99.90;;;;;;6239114;23;20480;-75
2022/12/01 05:16:44;;;;;;;49.10;22.60;;;2.40;99.90;;;;;;6239491;23;20413;-74
2022/12/01 05:21:52;;;;;;;55.53;22.07;;;2.40;99.90;;;;;;6190062;23;20438;-78
2022/12/01 05:24:20;;;;;;;44.53;22.03;;;2.40;99.90;;;;;;6241494;23;20464;-78
2022/12/01 05:26:49;;;;;;;43.77;21.37;;;2.40;99.90;;;;;;6240384;23;20433;-89
2022/12/01 05:29:16;;;;;;;46.97;21.97;;;2.40;99.90;;;;;;6240727;23;20410;-84
2022/12/01 05:31:44;;;;;;;41.83;20.77;;;2.30;99.90;;;;;;6240690;23;20421;-92
2022/12/01 05:34:11;;;;;;;34.93;19.57;;;2.20;99.90;;;;;;6241752;23;20441;-90
2022/12/01 05:36:46;;;;;;;37.80;19.47;;;2.30;99.90;;;;;;6240709;23;20492;-90
2022/12/01 05:39:13;;;;;;;44.80;21.40;;;2.40;99.90;;;;;;6241266;23;20417;-89
2022/12/01 05:41:40;;;;;;;46.70;22.77;;;2.30;99.90;;;;;;6242717;23;20967;-87
2022/12/01 05:44:09;;;;;;;45.60;20.30;;;2.30;99.90;;;;;;6257382;23;20410;-87
2022/12/01 05:46:35;;;;;;;39.40;20.30;;;2.30;99.90;;;;;;6246737;23;20905;-75
2022/12/01 05:51:44;;;;;;;39.17;21.13;;;2.40;99.90;;;;;;6264173;23;20750;-89
2022/12/01 05:54:11;;;;;;;41.20;21.10;;;2.30;99.90;;;;;;6267459;22;20457;-89
2022/12/01 05:59:14;;;;;;;38.97;20.53;;;2.50;99.90;;;;;;6275125;22;20448;-82
2022/12/01 06:01:41;;;;;;;46.00;19.70;;;2.50;99.90;;;;;;6269368;22;20402;-80
2022/12/01 06:04:08;;;;;;;44.07;20.63;;;2.50;99.90;;;;;;6272396;22;20479;-89
2022/12/01 06:06:40;;;;;;;42.67;21.60;;;2.50;99.90;;;;;;6272852;22;20412;-89
2022/12/01 06:09:07;;;;;;;45.07;20.37;;;2.40;99.90;;;;;;6278186;22;20910;-92
2022/12/01 06:11:35;;;;;;;37.57;20.57;;;2.50;99.90;;;;;;6309369;22;20446;-91
2022/12/01 06:14:02;;;;;;;46.40;22.57;;;2.50;99.90;;;;;;6306478;22;20443;-88
2022/12/01 06:16:30;;;;;;;45.13;23.07;;;2.50;99.90;;;;;;6321657;22;20404;-88
2022/12/01 06:19:01;;;;;;;50.80;22.23;;;2.50;99.90;;;;;;6320094;22;20434;-79
2022/12/01 06:21:34;;;;;;;42.63;19.27;;;2.50;99.90;;;;;;6312177;22;20412;-77
2022/12/01 06:24:00;;;;;;;39.53;19.87;;;2.30;99.90;;;;;;6311016;22;20405;-80
2022/12/01 06:26:27;;;;;;;40.43;20.53;;;2.50;99.90;;;;;;6301931;22;20622;-83
2022/12/01 06:28:56;;;;;;;41.87;18.87;;;2.50;99.90;;;;;;6301655;22;20405;-78
2022/12/01 06:31:23;;;;;;;37.00;19.30;;;3.40;99.90;;;;;;6299532;22;20423;-76
2022/12/01 06:33:51;;;;;;;32.17;17.30;;;2.50;99.90;;;;;;6300791;22;20436;-76
2022/12/01 06:36:19;;;;;;;36.23;18.10;;;2.50;99.90;;;;;;6301253;22;20405;-74
2022/12/01 06:38:45;;;;;;;32.70;19.47;;;2.50;99.90;;;;;;6301369;22;20415;-77
2022/12/01 06:41:12;;;;;;;36.93;16.87;;;3.60;99.90;;;;;;6301286;22;20443;-77
2022/12/01 06:43:42;;;;;;;38.67;19.97;;;2.50;99.90;;;;;;6301145;22;20409;-79
2022/12/01 06:46:09;;;;;;;36.67;18.87;;;2.40;99.90;;;;;;6301807;22;20418;-78
2022/12/01 06:48:36;;;;;;;34.33;16.87;;;2.40;99.90;;;;;;6301520;22;20400;-78
2022/12/01 06:51:07;;;;;;;35.23;15.43;;;2.50;99.90;;;;;;6301415;22;20444;-80
2022/12/01 06:53:35;;;;;;;33.03;16.43;;;2.60;99.90;;;;;;6301249;22;20432;-79
2022/12/01 06:56:03;;;;;;;34.13;17.60;;;2.50;99.90;;;;;;6300990;22;20428;-87
2022/12/01 06:58:30;;;;;;;35.90;18.43;;;2.60;99.90;;;;;;6300167;22;20444;-78
2022/12/01 07:00:57;;;;;;;30.77;16.63;;;2.90;99.90;;;;;;6299906;22;20419;-78
2022/12/01 07:03:24;;;;;;;44.60;20.27;;;2.60;99.90;;;;;;6300204;22;20408;-78
2022/12/01 07:05:57;;;;;;;41.10;19.37;;;2.70;99.90;;;;;;6300084;22;20409;-79
2022/12/01 07:08:25;;;;;;;36.10;16.80;;;2.70;99.90;;;;;;6299540;22;21015;-80
2022/12/01 07:10:57;;;;;;;38.77;20.20;;;2.70;99.90;;;;;;6300014;22;20495;-80
2022/12/01 07:13:24;;;;;;;41.20;18.67;;;2.70;99.90;;;;;;6299116;22;20968;-78
2022/12/01 07:15:51;;;;;;;40.30;20.30;;;2.70;99.90;;;;;;6300397;22;20404;-79
2022/12/01 07:18:18;;;;;;;32.80;18.03;;;2.70;99.90;;;;;;6311511;22;20430;-91
2022/12/01 07:20:45;;;;;;;39.50;18.60;;;2.70;99.90;;;;;;6317486;22;20451;-92
2022/12/01 07:23:12;;;;;;;33.77;19.20;;;2.90;99.90;;;;;;6321717;22;20422;-91
2022/12/01 07:25:41;;;;;;;41.50;20.20;;;2.80;99.90;;;;;;6314349;22;20413;-91
2022/12/01 07:28:09;;;;;;;42.67;18.83;;;2.80;99.90;;;;;;6307977;22;20423;-91
2022/12/01 07:30:36;;;;;;;40.37;17.53;;;2.80;99.90;;;;;;6302746;22;20425;-91
2022/12/01 07:33:03;;;;;;;39.40;20.30;;;2.90;99.90;;;;;;6303718;22;20420;-92
2022/12/01 07:35:30;;;;;;;38.57;20.00;;;2.90;99.90;;;;;;6304936;22;20497;-91
2022/12/01 07:37:57;;;;;;;33.53;19.60;;;2.90;99.90;;;;;;6305168;22;20423;-92
2022/12/01 07:40:24;;;;;;;39.33;20.67;;;3.00;99.90;;;;;;6304680;22;20408;-87
2022/12/01 07:42:52;;;;;;;42.87;19.63;;;3.00;99.90;;;;;;6303442;22;20466;-89
2022/12/01 07:45:19;;;;;;;47.77;19.10;;;2.90;99.90;;;;;;6296562;22;20478;-83
2022/12/01 07:47:46;;;;;;;41.60;21.37;;;3.00;99.90;;;;;;6299043;22;20411;-84
2022/12/01 07:50:13;;;;;;;36.73;19.33;;;3.00;99.90;;;;;;6300575;22;20419;-85
2022/12/01 07:52:40;;;;;;;43.97;20.80;;;3.60;99.90;;;;;;6300008;22;20754;-85
2022/12/01 07:55:07;;;;;;;40.23;20.87;;;2.90;99.90;;;;;;6300419;22;20439;-84
2022/12/01 07:57:34;;;;;;;38.70;20.23;;;2.80;99.90;;;;;;6244977;22;1107641;-85
2022/12/01 08:00:04;;;;;;;43.73;20.30;;;2.90;99.90;;;;;;6282054;22;20502;-85
2022/12/01 08:02:30;;;;;;;43.93;21.43;;;2.80;99.90;;;;;;6302549;22;20408;-84
2022/12/01 08:04:57;;;;;;;42.17;21.20;;;2.90;99.90;;;;;;6302506;22;20408;-84
2022/12/01 08:07:24;;;;;;;45.00;20.20;;;2.90;99.90;;;;;;6301910;22;20434;-84
2022/12/01 08:09:51;;;;;;;39.17;20.23;;;3.00;99.90;;;;;;6301868;22;20443;-83
2022/12/01 08:12:18;;;;;;;38.93;20.40;;;3.00;99.90;;;;;;6301878;22;20805;-84
2022/12/01 08:14:45;;;;;;;39.40;20.30;;;3.00;99.90;;;;;;6302953;22;20440;-86
2022/12/01 08:17:13;;;;;;;38.27;20.67;;;3.00;99.90;;;;;;6312850;22;20645;-83
2022/12/01 08:19:40;;;;;;;37.60;18.87;;;3.10;99.90;;;;;;6303208;22;20570;-80
2022/12/01 08:22:07;;;;;;;38.77;20.83;;;3.10;99.90;;;;;;6301626;22;20918;-81
2022/12/01 08:24:35;;;;;;;39.80;20.13;;;3.00;99.90;;;;;;6300500;22;20713;-82
2022/12/01 08:27:02;;;;;;;53.97;23.20;;;3.00;99.90;;;;;;6301977;22;20427;-81
2022/12/01 08:29:28;;;;;;;41.23;20.90;;;3.10;99.90;;;;;;6301247;22;20902;-79
2022/12/01 08:31:58;;;;;;;44.87;21.50;;;3.10;99.90;;;;;;6301884;22;20898;-83
2022/12/01 08:34:27;;;;;;;46.90;20.30;;;3.00;99.90;;;;;;6313261;22;20462;-81
2022/12/01 08:36:54;;;;;;;39.17;20.37;;;3.00;99.90;;;;;;6304515;22;20405;-80
2022/12/01 08:39:21;;;;;;;43.33;20.60;;;3.10;99.90;;;;;;6318011;22;20570;-91
2022/12/01 08:41:48;;;;;;;36.13;19.80;;;2.90;99.90;;;;;;6328026;22;20427;-92
2022/12/01 08:44:15;;;;;;;32.50;17.60;;;3.00;99.90;;;;;;6306184;22;20409;-90
2022/12/01 08:46:42;;;;;;;38.73;20.10;;;3.10;99.90;;;;;;6304163;22;20952;-90
2022/12/01 08:49:12;;;;;;;42.00;20.50;;;3.00;99.90;;;;;;6306640;22;20391;-90
2022/12/01 08:51:41;;;;;;;38.33;19.97;;;3.00;99.90;;;;;;6306188;22;20752;-92
2022/12/01 08:54:08;;;;;;;39.50;19.33;;;3.00;99.90;;;;;;6305309;22;20440;-91
2022/12/01 08:56:37;;;;;;;34.20;17.70;;;3.10;99.90;;;;;;6304202;22;20959;-91
2022/12/01 08:59:04;;;;;;;33.00;19.57;;;3.20;99.90;;;;;;6303559;22;20509;-89
2022/12/01 09:01:32;;;;;;;33.73;17.03;;;3.10;99.90;;;;;;6304098;22;20408;-92
2022/12/01 09:04:07;;;;;;;35.90;19.30;;;3.10;99.90;;;;;;6303873;22;20420;-91
2022/12/01 09:06:39;;;;;;;39.93;18.20;;;3.00;99.90;;;;;;6303322;22;20435;-88
2022/12/01 09:09:08;;;;;;;30.30;18.13;;;3.10;99.90;;;;;;6302706;22;20435;-89
2022/12/01 09:11:36;;;;;;;36.50;16.40;;;3.10;99.90;;;;;;6305551;22;20416;-91
2022/12/01 09:14:03;;;;;;;34.73;17.67;;;3.10;99.90;;;;;;6302396;22;20444;-90
2022/12/01 09:16:30;;;;;;;42.23;18.17;;;3.10;99.90;;;;;;6302177;22;20477;-90
2022/12/01 09:18:57;;;;;;;31.83;17.40;;;3.20;99.90;;;;;;6302266;22;20420;-92
2022/12/01 09:21:26;;;;;;;37.90;18.03;;;3.10;99.90;;;;;;6303465;22;20481;-89
2022/12/01 09:23:54;;;;;;;32.33;17.17;;;3.10;99.90;;;;;;6301799;22;20894;-86
2022/12/01 09:26:23;;;;;;;40.67;20.20;;;3.20;99.90;;;;;;6300988;22;20768;-88
2022/12/01 09:28:53;;;;;;;34.13;17.93;;;3.10;99.90;;;;;;6301530;22;20419;-88
2022/12/01 09:31:22;;;;;;;33.40;19.27;;;3.20;99.90;;;;;;6270773;22;20657;-85
2022/12/01 09:33:53;;;;;;;35.23;18.50;;;3.10;99.90;;;;;;6300763;22;20788;-85
2022/12/01 09:36:20;;;;;;;32.50;16.27;;;3.20;99.90;;;;;;6302154;22;20412;-85
2022/12/01 09:38:47;;;;;;;31.30;18.17;;;3.10;99.90;;;;;;6300936;22;20932;-83
2022/12/01 09:41:20;;;;;;;33.53;16.60;;;3.20;99.90;;;;;;6304464;22;20409;-85
2022/12/01 09:43:54;;;;;;;37.30;17.60;;;3.30;99.90;;;;;;6302894;22;20649;-86
2022/12/01 09:46:25;;;;;;;31.63;18.90;;;3.30;99.90;;;;;;6302176;22;20439;-88
2022/12/01 09:48:54;;;;;;;30.97;17.50;;;3.40;99.90;;;;;;6301880;22;20890;-86
2022/12/01 09:51:22;;;;;;;31.97;17.17;;;3.40;99.90;;;;;;6301187;22;20465;-86
2022/12/01 09:53:51;;;;;;;36.00;18.40;;;3.40;99.90;;;;;;6300821;22;20419;-86
2022/12/01 09:56:22;;;;;;;32.80;16.90;;;3.40;99.90;;;;;;6301015;22;20474;-86
2022/12/01 09:58:55;;;;;;;32.23;17.07;;;3.50;99.90;;;;;;6300801;22;20963;-86
2022/12/01 10:01:29;;;;;;;35.60;17.33;;;3.50;99.90;;;;;;6301479;22;20393;-87
2022/12/01 10:04:00;;;;;;;36.27;18.67;;;3.50;99.90;;;;;;6306348;22;20365;-84
2022/12/01 10:06:36;;;;;;;36.73;17.97;;;3.50;99.90;;;;;;6321304;22;20397;-82
2022/12/01 10:09:12;;;;;;;35.63;18.33;;;3.40;99.90;;;;;;6307308;22;20873;-82
2022/12/01 10:11:41;;;;;;;33.87;17.23;;;3.40;99.90;;;;;;6305709;22;20802;-85
2022/12/01 10:14:14;;;;;;;30.87;16.30;;;3.30;99.90;;;;;;6302168;22;20405;-84
2022/12/01 10:16:50;;;;;;;34.37;16.97;;;3.30;99.90;;;;;;6301188;22;20463;-83
2022/12/01 10:19:26;;;;;;;37.13;17.33;;;3.50;99.90;;;;;;6301513;22;20392;-88
2022/12/01 10:22:07;;;;;;;35.10;16.70;;;3.30;99.90;;;;;;6300962;22;20943;-88
2022/12/01 10:24:52;;;;;;;34.63;16.87;;;3.20;99.90;;;;;;6298408;22;20453;-81
2022/12/01 10:27:35;;;;;;;33.07;17.83;;;3.20;99.90;;;;;;6300364;22;20893;-87
2022/12/01 10:30:06;;;;;;;37.00;17.17;;;3.20;99.90;;;;;;6300004;22;20417;-88
2022/12/01 10:32:40;;;;;;;26.13;15.57;;;3.40;99.90;;;;;;6301423;22;20418;-87
2022/12/01 10:35:11;;;;;;;29.33;17.37;;;3.40;99.90;;;;;;6301586;22;20428;-88
2022/12/01 10:37:44;;;;;;;34.67;17.63;;;3.90;99.90;;;;;;6301663;22;20439;-87
2022/12/01 10:40:14;;;;;;;32.83;17.57;;;3.50;99.90;;;;;;6302778;22;20396;-87
2022/12/01 10:42:43;;;;;;;33.70;16.30;;;3.50;99.90;;;;;;6316184;22;20770;-87
2022/12/01 10:45:18;;;;;;;31.60;17.10;;;3.50;99.90;;;;;;6316079;22;20431;-87
2022/12/01 10:48:14;;;;;;;33.03;17.80;;;3.40;99.90;;;;;;6301963;22;20441;-87
2022/12/01 10:50:41;;;;;;;32.47;16.80;;;3.30;99.90;;;;;;6300839;22;20397;-80
2022/12/01 10:53:27;;;;;;;34.37;18.47;;;3.30;99.90;;;;;;6299921;22;20413;-78
2022/12/01 10:56:06;;;;;;;35.77;17.10;;;3.30;99.90;;;;;;6299318;22;21211;-79
2022/12/01 10:58:39;;;;;;;26.53;15.97;;;3.50;99.90;;;;;;6299610;22;20440;-79
2022/12/01 11:01:17;;;;;;;34.70;16.73;;;3.50;99.90;;;;;;6299567;22;20400;-79
2022/12/01 11:03:49;;;;;;;34.90;17.53;;;3.50;99.90;;;;;;6300092;22;20442;-80
2022/12/01 11:06:22;;;;;;;27.23;16.70;;;3.40;99.90;;;;;;6300196;22;20715;-78
2022/12/01 11:08:58;;;;;;;28.73;16.20;;;3.50;99.90;;;;;;6299472;22;20396;-80
2022/12/01 11:11:30;;;;;;;30.73;17.00;;;3.70;99.90;;;;;;6299659;22;20408;-79
2022/12/01 11:14:00;;;;;;;28.00;14.33;;;3.60;99.90;;;;;;6300214;22;20423;-80
2022/12/01 11:16:41;;;;;;;30.53;15.57;;;3.60;99.90;;;;;;6300829;22;20424;-84
2022/12/01 11:19:17;;;;;;;27.83;14.40;;;3.50;99.90;;;;;;6300835;22;20416;-79
2022/12/01 11:21:47;;;;;;;35.30;16.03;;;3.50;99.90;;;;;;6299929;22;20412;-82
2022/12/01 11:24:29;;;;;;;30.73;15.67;;;3.70;99.90;;;;;;6299486;22;20957;-79
2022/12/01 11:26:57;;;;;;;27.00;13.90;;;3.60;99.90;;;;;;6298815;22;20411;-75
2022/12/01 11:29:31;;;;;;;30.37;16.00;;;3.60;99.90;;;;;;6301608;22;20481;-79
2022/12/01 11:32:01;;;;;;;28.23;15.00;;;3.50;99.90;;;;;;6300354;22;20424;-81
2022/12/01 11:34:30;;;;;;;33.93;15.60;;;3.60;99.90;;;;;;6300684;22;20421;-70
2022/12/01 11:37:01;;;;;;;40.10;17.00;;;3.40;99.90;;;;;;6299466;22;21021;-69
2022/12/01 11:39:31;;;;;;;29.93;14.23;;;3.50;99.90;;;;;;6299284;22;20420;-68
2022/12/01 11:42:01;;;;;;;32.20;15.27;;;3.50;99.90;;;;;;6299060;22;20408;-69
2022/12/01 11:44:38;;;;;;;29.70;16.57;;;3.80;99.90;;;;;;6301196;22;20443;-86
2022/12/01 11:47:14;;;;;;;27.90;16.27;;;3.70;99.90;;;;;;6302382;22;20434;-82
2022/12/01 11:49:44;;;;;;;34.97;17.30;;;3.60;99.90;;;;;;6300781;22;20404;-85
2022/12/01 11:52:22;;;;;;;29.80;17.37;;;3.50;99.90;;;;;;6301136;22;20436;-86
2022/12/01 11:55:18;;;;;;;25.70;16.30;;;3.70;99.90;;;;;;6301805;22;20643;-90
2022/12/01 11:57:55;;;;;;;23.10;13.97;;;3.80;99.90;;;;;;6300996;22;20455;-86
2022/12/01 12:00:24;;;;;;;27.20;16.53;;;3.80;99.90;;;;;;6301783;22;20448;-83
2022/12/01 12:03:16;;;;;;;32.83;15.40;;;3.80;99.90;;;;;;6306739;22;20435;-88
2022/12/01 12:06:05;;;;;;;34.43;17.10;;;3.80;99.90;;;;;;6306510;22;20431;-88
2022/12/01 12:08:45;;;;;;;32.43;16.60;;;3.60;99.90;;;;;;6300884;22;20440;-85
2022/12/01 12:14:23;;;;;;;33.30;15.90;;;3.20;99.90;;;;;;6300101;22;20408;-84
2022/12/01 12:17:08;;;;;;;29.97;15.80;;;3.20;99.90;;;;;;6294630;22;20842;-86
2022/12/01 12:19:52;;;;;;;38.10;16.20;;;3.40;99.90;;;;;;6301625;22;20430;-87
2022/12/01 12:22:26;;;;;;;27.33;14.43;;;3.50;99.90;;;;;;6302850;22;20389;-85
2022/12/01 12:25:04;;;;;;;43.43;26.37;;;3.50;99.90;;;;;;6302331;22;20406;-85
2022/12/01 12:27:42;;;;;;;28.47;15.00;;;3.60;99.90;;;;;;6302655;22;20970;-85
2022/12/01 12:30:20;;;;;;;31.47;16.03;;;3.70;99.90;;;;;;6302157;22;20421;-85
2022/12/01 12:33:23;;;;;;;29.00;16.00;;;3.70;99.90;;;;;;6301803;22;20480;-86
2022/12/01 12:36:02;;;;;;;29.43;17.07;;;3.60;99.90;;;;;;6301758;22;20913;-85
2022/12/01 12:38:46;;;;;;;30.80;18.37;;;3.70;99.90;;;;;;6302410;22;20457;-86
2022/12/01 12:41:28;;;;;;;30.33;15.67;;;3.80;99.90;;;;;;6302565;22;20416;-79
2022/12/01 12:44:11;;;;;;;28.80;15.20;;;3.80;99.90;;;;;;6302807;22;20412;-80
2022/12/01 12:46:46;;;;;;;28.80;14.70;;;4.00;99.90;;;;;;6300239;22;20409;-81
2022/12/01 12:49:29;;;;;;;32.30;18.03;;;3.80;99.90;;;;;;6301715;22;20462;-82
2022/12/01 12:52:02;;;;;;;130.17;74.13;;;3.70;99.90;;;;;;6302389;22;20824;-83
2022/12/01 12:54:34;;;;;;;37.63;22.00;;;3.80;99.90;;;;;;6302540;22;20389;-80
2022/12/01 12:57:04;;;;;;;38.80;15.80;;;3.80;99.90;;;;;;6302258;22;20468;-78
2022/12/01 12:59:38;;;;;;;31.80;16.53;;;3.90;99.90;;;;;;6271163;22;20421;-80
2022/12/01 13:02:12;;;;;;;31.33;16.00;;;3.90;99.90;;;;;;6270441;22;20444;-79
2022/12/01 13:04:45;;;;;;;34.30;16.50;;;4.00;99.90;;;;;;6271574;22;20433;-79
2022/12/01 13:07:25;;;;;;;35.30;16.93;;;3.90;99.90;;;;;;6271549;22;20425;-82
2022/12/01 13:09:56;;;;;;;27.23;14.63;;;3.90;99.90;;;;;;6275472;22;20430;-86
2022/12/01 13:12:29;;;;;;;39.10;17.43;;;3.90;99.90;;;;;;6278742;22;20891;-87